Time;durP1;ratioP1;P1;durP2;ratioP2;P2;SDS_P1;SDS_P2;PMS_P1;PMS_P2;Temp;Humidity;BMP_temperature;BMP_pressure;BME280_temperature;BME280_humidity;BME280_pressure;Samples;Min_cycle;Max_cycle;Signal;HPM_P1;HPM_P2
2022/01/28 00:01:15;;;;;;;4.35;1.60;;;4.60;99.90;;;;;;7300743;19;2004842;-80
2022/01/28 00:03:41;;;;;;;1.73;1.40;;;4.60;99.90;;;;;;7395280;19;20332;-81
2022/01/28 00:06:07;;;;;;;3.50;1.63;;;4.60;99.90;;;;;;7402966;19;20325;-81
2022/01/28 00:08:33;;;;;;;1.50;1.30;;;4.80;99.90;;;;;;7402121;19;20300;-81
2022/01/28 00:10:59;;;;;;;3.85;1.63;;;4.70;99.90;;;;;;7397389;19;20312;-81
2022/01/28 00:13:37;;;;;;;2.40;1.48;;;4.60;99.90;;;;;;7395852;19;20339;-80
2022/01/28 00:16:41;;;;;;;3.50;1.65;;;4.70;99.90;;;;;;7395061;19;20317;-79
2022/01/28 00:38:14;;;;;;;4.97;1.85;;;4.60;99.90;;;;;;7394545;19;20317;-80
2022/01/28 00:40:40;;;;;;;3.05;1.67;;;4.70;99.90;;;;;;7393828;19;20314;-79
2022/01/28 00:43:05;;;;;;;5.10;1.63;;;4.70;99.90;;;;;;7392213;19;20817;-81
2022/01/28 00:45:31;;;;;;;2.63;1.50;;;4.70;99.90;;;;;;7398519;19;20360;-80
2022/01/28 00:47:57;;;;;;;6.78;1.77;;;4.70;99.90;;;;;;7401137;19;20349;-80
2022/01/28 00:50:22;;;;;;;2.00;1.50;;;4.70;99.90;;;;;;7402067;19;20329;-81
2022/01/28 00:52:48;;;;;;;1.43;1.33;;;4.70;99.90;;;;;;7394840;19;20324;-81
2022/01/28 00:55:14;;;;;;;3.58;1.80;;;4.70;99.90;;;;;;7394089;19;20305;-80
2022/01/28 00:57:39;;;;;;;2.13;1.60;;;4.70;99.90;;;;;;7393235;19;20329;-80
2022/01/28 01:00:06;;;;;;;3.03;1.73;;;4.70;99.90;;;;;;7394701;19;20321;-81
2022/01/28 01:02:32;;;;;;;4.45;1.80;;;4.70;99.90;;;;;;7395893;19;20316;-79
2022/01/28 01:04:58;;;;;;;2.87;1.43;;;4.70;99.90;;;;;;7393194;19;20349;-80
2022/01/28 01:07:23;;;;;;;1.77;1.50;;;4.80;99.90;;;;;;7393687;19;20319;-81
2022/01/28 01:09:49;;;;;;;1.70;1.40;;;4.70;99.90;;;;;;7392030;19;20344;-80
2022/01/28 01:12:18;;;;;;;4.03;1.70;;;4.60;99.90;;;;;;7391028;19;20316;-80
2022/01/28 01:14:45;;;;;;;1.42;1.33;;;4.60;99.90;;;;;;7391055;19;20334;-81
2022/01/28 01:19:43;;;;;;;1.60;1.40;;;4.60;99.90;;;;;;7393238;19;20313;-80
2022/01/28 01:22:10;;;;;;;6.18;2.17;;;4.60;99.90;;;;;;7393220;19;20435;-79
2022/01/28 01:24:47;;;;;;;4.15;1.58;;;4.60;99.90;;;;;;7391832;19;20324;-78
2022/01/28 01:27:12;;;;;;;2.90;1.73;;;4.60;99.90;;;;;;7395321;19;20321;-84
2022/01/28 01:29:42;;;;;;;2.33;1.55;;;4.60;99.90;;;;;;7394190;19;20962;-84
2022/01/28 01:32:13;;;;;;;2.17;1.75;;;4.70;99.90;;;;;;7393882;19;20372;-81
2022/01/28 01:34:38;;;;;;;2.55;1.73;;;4.60;99.90;;;;;;7394083;19;20308;-82
2022/01/28 01:37:04;;;;;;;6.30;1.70;;;4.70;99.90;;;;;;7400418;19;20399;-84
2022/01/28 01:39:34;;;;;;;3.55;1.95;;;4.70;99.90;;;;;;7411313;19;20377;-81
2022/01/28 01:42:08;;;;;;;5.22;2.17;;;4.70;99.90;;;;;;7405668;19;20341;-84
2022/01/28 01:52:52;;;;;;;3.67;1.88;;;4.70;99.90;;;;;;7395135;19;20885;-81
2022/01/28 01:55:18;;;;;;;3.95;2.00;;;4.80;99.90;;;;;;7393668;19;20404;-82
2022/01/28 01:57:43;;;;;;;2.27;1.90;;;4.80;99.90;;;;;;7393782;19;20301;-80
2022/01/28 02:00:09;;;;;;;4.22;1.88;;;4.80;99.90;;;;;;7391216;19;20360;-78
2022/01/28 02:02:45;;;;;;;4.50;2.00;;;4.80;99.90;;;;;;7389043;19;20657;-82
2022/01/28 02:05:11;;;;;;;6.05;1.90;;;4.80;99.90;;;;;;7390104;19;20304;-81
2022/01/28 02:07:37;;;;;;;4.40;1.90;;;4.80;99.90;;;;;;7391710;19;20754;-79
2022/01/28 02:10:03;;;;;;;3.50;1.92;;;4.80;99.90;;;;;;7388431;19;20425;-80
2022/01/28 02:12:47;;;;;;;4.85;1.92;;;4.80;99.90;;;;;;7393422;19;20404;-81
2022/01/28 02:15:13;;;;;;;6.28;2.25;;;4.80;99.90;;;;;;7283339;19;2019963;-81
2022/01/28 02:17:38;;;;;;;6.53;2.27;;;4.80;99.90;;;;;;7391215;19;20301;-80
2022/01/28 02:20:05;;;;;;;5.55;1.63;;;4.80;99.90;;;;;;7390432;19;20984;-82
2022/01/28 02:22:31;;;;;;;2.80;2.05;;;4.80;99.90;;;;;;7396403;19;20324;-79
2022/01/28 02:24:57;;;;;;;4.30;2.30;;;4.90;99.90;;;;;;7391368;19;20836;-83
2022/01/28 02:27:22;;;;;;;6.03;2.20;;;4.90;99.90;;;;;;7393860;19;20866;-79
2022/01/28 02:29:50;;;;;;;4.32;1.98;;;4.90;99.90;;;;;;7390429;19;20719;-80
2022/01/28 02:32:15;;;;;;;4.97;2.15;;;4.90;99.90;;;;;;7391175;19;20357;-83
2022/01/28 02:34:41;;;;;;;3.17;2.07;;;4.90;99.90;;;;;;7389412;19;21309;-82
2022/01/28 02:37:07;;;;;;;3.17;2.00;;;4.90;99.90;;;;;;7390154;19;20644;-79
2022/01/28 02:39:33;;;;;;;4.75;2.25;;;4.90;99.90;;;;;;7387569;19;20336;-81
2022/01/28 02:42:13;;;;;;;5.00;1.85;;;4.80;99.90;;;;;;7389877;19;20337;-80
2022/01/28 02:44:47;;;;;;;3.60;1.92;;;4.80;99.90;;;;;;7387913;19;20313;-80
2022/01/28 02:47:16;;;;;;;5.53;2.25;;;4.80;99.90;;;;;;7393195;19;20420;-81
2022/01/28 02:49:43;;;;;;;1.95;1.73;;;4.80;99.90;;;;;;7397580;19;20392;-81
2022/01/28 02:52:17;;;;;;;5.00;1.55;;;4.70;99.90;;;;;;7393088;19;20331;-80
2022/01/28 02:54:46;;;;;;;6.55;2.35;;;4.70;99.90;;;;;;7394412;19;20312;-81
2022/01/28 02:57:15;;;;;;;6.30;2.15;;;4.70;99.90;;;;;;7393477;19;20317;-84
2022/01/28 02:59:40;;;;;;;4.05;2.20;;;4.80;99.90;;;;;;7396364;19;20304;-83
2022/01/28 03:02:06;;;;;;;2.97;2.00;;;4.70;99.90;;;;;;7398289;19;20340;-81
2022/01/28 03:07:04;;;;;;;1.70;1.60;;;4.70;99.90;;;;;;7298341;19;2006178;-84
2022/01/28 03:09:48;;;;;;;1.52;1.42;;;4.70;99.90;;;;;;7399726;19;20336;-81
2022/01/28 03:12:17;;;;;;;3.72;2.05;;;4.70;99.90;;;;;;7404105;19;20324;-82
2022/01/28 03:15:03;;;;;;;3.75;1.88;;;4.70;99.90;;;;;;7395445;19;20361;-85
2022/01/28 03:17:51;;;;;;;5.47;2.30;;;4.70;99.90;;;;;;7413454;19;20313;-82
2022/01/28 03:22:45;;;;;;;2.78;1.95;;;4.70;99.90;;;;;;7408998;19;20344;-82
2022/01/28 03:25:11;;;;;;;4.43;1.90;;;4.70;99.90;;;;;;7403669;19;20403;-81
2022/01/28 03:30:14;;;;;;;7.65;1.98;;;4.70;99.90;;;;;;7295690;19;2007559;-81
2022/01/28 03:32:40;;;;;;;4.57;1.90;;;4.70;99.90;;;;;;7402638;19;20319;-80
2022/01/28 03:35:06;;;;;;;2.72;1.90;;;4.60;99.90;;;;;;7379700;19;20923;-81
2022/01/28 03:37:31;;;;;;;5.30;2.10;;;4.50;99.90;;;;;;7395406;19;21175;-82
2022/01/28 03:39:57;;;;;;;5.93;2.35;;;4.50;99.90;;;;;;7394081;19;20315;-80
2022/01/28 03:42:22;;;;;;;2.87;1.80;;;4.40;99.90;;;;;;7395324;19;20308;-80
2022/01/28 03:44:48;;;;;;;5.43;1.98;;;4.40;99.90;;;;;;7394400;19;20408;-81
2022/01/28 03:47:14;;;;;;;4.60;2.17;;;4.40;99.90;;;;;;7394788;19;21088;-83
2022/01/28 03:49:43;;;;;;;4.95;2.10;;;4.40;99.90;;;;;;7394267;19;21205;-83
2022/01/28 03:52:08;;;;;;;6.65;1.90;;;4.40;99.90;;;;;;7397673;19;20320;-81
2022/01/28 03:54:34;;;;;;;3.10;1.80;;;4.40;99.90;;;;;;7392486;19;20309;-82
2022/01/28 03:57:00;;;;;;;4.47;2.22;;;4.40;99.90;;;;;;7400190;19;20321;-82
2022/01/28 03:59:25;;;;;;;4.57;2.27;;;4.40;99.90;;;;;;7398756;19;20348;-81
2022/01/28 04:01:51;;;;;;;2.13;1.75;;;4.50;99.90;;;;;;7400946;19;20349;-78
2022/01/28 04:12:30;;;;;;;5.32;2.17;;;4.30;99.90;;;;;;7394835;19;20353;-78
2022/01/28 04:17:31;;;;;;;3.85;2.00;;;4.40;99.90;;;;;;7396393;19;20416;-78
2022/01/28 04:19:56;;;;;;;5.75;2.55;;;4.40;99.90;;;;;;7392364;19;20317;-81
2022/01/28 04:22:22;;;;;;;2.80;1.90;;;4.30;99.90;;;;;;7394332;19;20356;-81
2022/01/28 04:24:48;;;;;;;3.40;2.00;;;4.20;99.90;;;;;;7386350;19;20305;-80
2022/01/28 04:27:13;;;;;;;6.28;2.50;;;4.10;99.90;;;;;;7393663;19;20305;-80
2022/01/28 04:29:39;;;;;;;5.33;2.43;;;4.10;99.90;;;;;;7394069;19;20312;-80
2022/01/28 04:32:05;;;;;;;4.35;1.95;;;4.10;99.90;;;;;;7394175;19;20321;-80
2022/01/28 04:34:31;;;;;;;4.20;2.35;;;4.10;99.90;;;;;;7389074;19;21008;-82
2022/01/28 04:42:06;;;;;;;3.05;2.08;;;4.20;99.90;;;;;;7393416;19;20311;-81
2022/01/28 04:47:21;;;;;;;7.63;2.17;;;4.20;99.90;;;;;;7396099;19;20368;-82
2022/01/28 04:50:06;;;;;;;4.07;2.13;;;4.20;99.90;;;;;;7394113;19;20794;-79
2022/01/28 04:53:05;;;;;;;3.50;2.13;;;4.30;99.90;;;;;;7396701;19;20646;-79
2022/01/28 04:58:12;;;;;;;3.75;2.20;;;4.30;99.90;;;;;;7393924;19;20321;-80
2022/01/28 05:00:49;;;;;;;3.28;2.00;;;4.20;99.90;;;;;;7272752;19;2011184;-82
2022/01/28 05:09:25;;;;;;;5.03;2.00;;;4.20;99.90;;;;;;7390187;19;20320;-80
2022/01/28 05:23:18;;;;;;;5.32;2.35;;;4.30;99.90;;;;;;7392638;19;20341;-80
2022/01/28 05:28:11;;;;;;;3.83;2.17;;;4.30;99.90;;;;;;7394183;19;20310;-81
2022/01/28 05:30:37;;;;;;;4.93;2.17;;;4.30;99.90;;;;;;7393908;19;20324;-79
2022/01/28 05:33:03;;;;;;;4.57;2.10;;;4.40;99.90;;;;;;7393411;19;20303;-78
2022/01/28 05:35:31;;;;;;;4.53;2.22;;;4.30;99.90;;;;;;7387811;19;20348;-80
2022/01/28 05:37:56;;;;;;;3.85;2.13;;;4.30;99.90;;;;;;7391789;19;20698;-78
2022/01/28 05:40:22;;;;;;;4.97;2.28;;;4.30;99.90;;;;;;7373403;19;20322;-79
2022/01/28 05:42:48;;;;;;;4.50;2.10;;;4.30;99.90;;;;;;7396220;19;20649;-82
2022/01/28 05:45:14;;;;;;;5.07;2.00;;;4.30;99.90;;;;;;7388909;19;20309;-79
2022/01/28 05:47:40;;;;;;;8.40;2.20;;;4.30;99.90;;;;;;7392118;19;20308;-79
2022/01/28 05:50:07;;;;;;;4.15;2.10;;;4.20;99.90;;;;;;7369097;19;20389;-80
2022/01/28 05:52:33;;;;;;;5.47;2.60;;;4.20;99.90;;;;;;7399647;19;20840;-84
2022/01/28 05:54:59;;;;;;;5.90;2.00;;;4.20;99.90;;;;;;7387835;19;20946;-78
2022/01/28 05:57:25;;;;;;;5.22;2.28;;;4.20;99.90;;;;;;7391202;19;20349;-79
2022/01/28 05:59:52;;;;;;;5.73;2.20;;;4.30;99.90;;;;;;7389501;19;21154;-80
2022/01/28 06:02:19;;;;;;;4.53;2.20;;;4.10;99.90;;;;;;7388987;19;20324;-81
2022/01/28 06:04:45;;;;;;;8.35;2.60;;;4.20;99.90;;;;;;7389343;19;20315;-79
2022/01/28 06:07:12;;;;;;;3.63;2.07;;;4.20;99.90;;;;;;7391035;19;20842;-79
2022/01/28 06:09:38;;;;;;;5.73;2.57;;;4.20;99.90;;;;;;7386283;19;20309;-79
2022/01/28 06:12:05;;;;;;;3.90;2.20;;;4.20;99.90;;;;;;7390818;19;20309;-82
2022/01/28 06:14:30;;;;;;;2.00;1.70;;;4.20;99.90;;;;;;7388916;19;20323;-79
2022/01/28 06:16:56;;;;;;;12.05;2.28;;;4.20;99.90;;;;;;7392728;19;20320;-79
2022/01/28 06:19:22;;;;;;;3.80;1.95;;;4.10;99.90;;;;;;7391002;19;20304;-82
2022/01/28 06:21:55;;;;;;;4.93;2.42;;;4.20;99.90;;;;;;7394756;19;20409;-80
2022/01/28 06:24:22;;;;;;;4.43;2.35;;;4.10;99.90;;;;;;7387844;19;20332;-79
2022/01/28 06:26:47;;;;;;;4.50;2.17;;;4.20;99.90;;;;;;7389802;19;20301;-79
2022/01/28 06:29:13;;;;;;;5.55;2.40;;;4.20;99.90;;;;;;7390383;19;20346;-78
2022/01/28 06:31:43;;;;;;;3.67;2.20;;;4.20;99.90;;;;;;7389640;19;20978;-79
2022/01/28 06:34:09;;;;;;;5.82;2.65;;;4.20;99.90;;;;;;7390181;19;20325;-79
2022/01/28 06:36:35;;;;;;;4.05;1.85;;;4.20;99.90;;;;;;7389989;19;20941;-80
2022/01/28 06:39:02;;;;;;;5.18;2.45;;;4.10;99.90;;;;;;7402555;19;20320;-82
2022/01/28 06:41:27;;;;;;;5.60;2.40;;;4.10;99.90;;;;;;7399650;19;20361;-80
2022/01/28 06:43:53;;;;;;;5.03;2.25;;;4.20;99.90;;;;;;7397654;19;20875;-79
2022/01/28 06:46:19;;;;;;;5.53;2.22;;;4.10;99.90;;;;;;7394435;19;20309;-79
2022/01/28 06:48:45;;;;;;;4.50;2.23;;;4.20;99.90;;;;;;7393567;19;20301;-80
2022/01/28 06:51:10;;;;;;;6.25;2.30;;;4.30;99.90;;;;;;7393678;19;20335;-81
2022/01/28 06:53:38;;;;;;;6.13;1.97;;;4.20;99.90;;;;;;7390833;19;20332;-81
2022/01/28 06:56:04;;;;;;;4.78;2.25;;;4.20;99.90;;;;;;7390172;19;20332;-80
2022/01/28 06:58:30;;;;;;;5.78;2.65;;;4.30;99.90;;;;;;7391285;19;20364;-79
2022/01/28 07:00:55;;;;;;;7.07;2.70;;;4.20;99.90;;;;;;7390031;19;20305;-80
2022/01/28 07:03:21;;;;;;;5.03;3.10;;;4.20;99.90;;;;;;7368676;19;20309;-83
2022/01/28 07:05:47;;;;;;;6.82;2.55;;;4.20;99.90;;;;;;7393480;19;20341;-79
2022/01/28 07:08:13;;;;;;;3.75;1.95;;;4.30;99.90;;;;;;7392302;19;20319;-80
2022/01/28 07:10:38;;;;;;;5.37;2.67;;;4.30;99.90;;;;;;7396884;19;20304;-79
2022/01/28 07:13:04;;;;;;;2.83;2.17;;;4.30;99.90;;;;;;7366856;19;20320;-80
2022/01/28 07:15:30;;;;;;;4.93;2.45;;;4.20;99.90;;;;;;7388011;19;20411;-82
2022/01/28 07:17:57;;;;;;;4.07;1.97;;;4.20;99.90;;;;;;7390976;19;20320;-80
2022/01/28 07:20:23;;;;;;;5.13;2.53;;;4.30;99.90;;;;;;7388364;19;20324;-79
2022/01/28 07:22:49;;;;;;;5.97;2.70;;;4.20;99.90;;;;;;7390221;19;20332;-80
2022/01/28 07:25:15;;;;;;;5.80;2.17;;;4.40;99.90;;;;;;7387087;19;21218;-81
2022/01/28 07:27:40;;;;;;;5.33;2.60;;;4.30;99.90;;;;;;7390515;19;20305;-80
2022/01/28 07:30:07;;;;;;;5.23;2.50;;;4.20;99.90;;;;;;7389483;19;20305;-79
2022/01/28 07:32:33;;;;;;;3.03;2.00;;;4.20;99.90;;;;;;7389421;19;20333;-78
2022/01/28 07:34:59;;;;;;;5.20;1.80;;;4.20;99.90;;;;;;7395381;19;20728;-80
2022/01/28 07:37:25;;;;;;;3.80;2.30;;;4.20;99.90;;;;;;7397214;19;20416;-79
2022/01/28 07:39:51;;;;;;;8.10;2.60;;;4.20;99.90;;;;;;7374967;19;20336;-79
2022/01/28 07:42:17;;;;;;;5.53;2.40;;;4.20;99.90;;;;;;7396630;19;20641;-81
2022/01/28 07:44:43;;;;;;;4.60;2.38;;;4.20;99.90;;;;;;7396971;19;20340;-80
2022/01/28 07:47:10;;;;;;;5.18;2.30;;;4.20;99.90;;;;;;7393022;19;20347;-81
2022/01/28 07:49:37;;;;;;;6.85;2.33;;;4.30;99.90;;;;;;7396294;19;20305;-80
2022/01/28 07:52:03;;;;;;;3.83;2.13;;;4.20;99.90;;;;;;7397030;19;20285;-81
2022/01/28 07:54:29;;;;;;;5.35;2.70;;;4.20;99.90;;;;;;7396745;19;20352;-79
2022/01/28 07:56:55;;;;;;;5.27;2.57;;;4.20;99.90;;;;;;7404077;19;20324;-78
2022/01/28 07:59:20;;;;;;;5.10;2.70;;;4.30;99.90;;;;;;7401476;19;20354;-78
2022/01/28 08:01:48;;;;;;;6.18;2.63;;;4.30;99.90;;;;;;7394492;19;20867;-77
2022/01/28 08:04:14;;;;;;;4.85;2.33;;;4.40;99.90;;;;;;7396715;19;20320;-79
2022/01/28 08:06:40;;;;;;;5.53;2.17;;;4.30;99.90;;;;;;7394261;19;20329;-79
2022/01/28 08:09:06;;;;;;;5.60;2.70;;;4.40;99.90;;;;;;7392696;19;20359;-78
2022/01/28 08:11:32;;;;;;;7.57;2.65;;;4.40;99.90;;;;;;7397342;19;20300;-79
2022/01/28 08:13:58;;;;;;;3.80;2.10;;;4.40;99.90;;;;;;7395165;19;20316;-80
2022/01/28 08:16:24;;;;;;;4.47;2.30;;;4.40;99.90;;;;;;7395568;19;20712;-80
2022/01/28 08:18:49;;;;;;;5.53;2.65;;;4.50;99.90;;;;;;7394359;19;20890;-79
2022/01/28 08:21:16;;;;;;;5.63;2.47;;;4.50;99.90;;;;;;7394869;19;20648;-84
2022/01/28 08:23:42;;;;;;;6.20;2.42;;;4.50;99.90;;;;;;7410757;19;20316;-79
2022/01/28 08:26:07;;;;;;;6.47;2.60;;;4.60;99.90;;;;;;7403163;19;20305;-80
2022/01/28 08:28:34;;;;;;;4.13;2.43;;;4.60;99.90;;;;;;7384276;19;20320;-81
2022/01/28 08:31:00;;;;;;;3.17;2.22;;;4.60;99.90;;;;;;7396620;19;20446;-81
2022/01/28 08:33:26;;;;;;;5.22;2.55;;;4.60;99.90;;;;;;7394301;19;20340;-81
2022/01/28 08:35:53;;;;;;;6.38;2.45;;;4.70;99.90;;;;;;7397761;19;20304;-79
2022/01/28 08:38:29;;;;;;;6.20;2.20;;;4.70;99.90;;;;;;7398955;19;20297;-81
2022/01/28 08:40:57;;;;;;;5.03;2.45;;;4.80;99.90;;;;;;7398075;19;20335;-79
2022/01/28 08:43:22;;;;;;;4.60;2.30;;;4.70;99.90;;;;;;7397312;19;20412;-80
2022/01/28 08:45:48;;;;;;;4.22;2.38;;;4.80;99.90;;;;;;7395553;19;20348;-86
2022/01/28 08:48:14;;;;;;;5.87;2.50;;;4.80;99.90;;;;;;7398841;19;20312;-80
2022/01/28 08:50:40;;;;;;;3.67;2.22;;;4.80;99.90;;;;;;7395613;19;20341;-80
2022/01/28 08:53:06;;;;;;;5.20;2.60;;;4.80;99.90;;;;;;7394833;19;20363;-81
2022/01/28 08:55:32;;;;;;;5.88;2.45;;;4.90;99.90;;;;;;7394288;19;20316;-81
2022/01/28 08:57:58;;;;;;;3.92;2.42;;;4.90;99.90;;;;;;7392849;19;20313;-80
2022/01/28 09:00:23;;;;;;;12.03;2.77;;;4.90;99.90;;;;;;7394328;19;20296;-79
2022/01/28 09:02:52;;;;;;;4.88;2.35;;;4.90;99.90;;;;;;7393921;19;20316;-80
2022/01/28 09:05:18;;;;;;;5.57;2.80;;;4.90;99.90;;;;;;7393243;19;20425;-78
2022/01/28 09:07:44;;;;;;;6.50;2.70;;;4.90;99.90;;;;;;7392889;19;20301;-79
2022/01/28 09:10:17;;;;;;;2.97;2.20;;;4.90;99.90;;;;;;7392066;19;20324;-83
2022/01/28 09:13:10;;;;;;;5.27;2.73;;;4.90;99.90;;;;;;7392590;19;20308;-80
2022/01/28 09:15:45;;;;;;;5.78;2.47;;;4.90;99.90;;;;;;7396877;19;20385;-79
2022/01/28 09:18:11;;;;;;;5.22;2.50;;;5.00;99.90;;;;;;7370773;19;20306;-80
2022/01/28 09:20:37;;;;;;;7.07;2.55;;;5.00;99.90;;;;;;7390763;19;20320;-78
2022/01/28 09:23:03;;;;;;;6.32;2.85;;;5.00;99.90;;;;;;7394063;19;20301;-79
2022/01/28 09:25:29;;;;;;;5.75;2.42;;;4.90;99.90;;;;;;7395880;19;20894;-78
2022/01/28 09:27:55;;;;;;;5.63;2.78;;;4.90;99.90;;;;;;7389728;19;20342;-79
2022/01/28 09:30:21;;;;;;;3.90;2.38;;;4.90;99.90;;;;;;7395923;19;21264;-79
2022/01/28 09:32:47;;;;;;;11.17;3.37;;;4.90;99.90;;;;;;7395558;19;20317;-80
2022/01/28 09:35:15;;;;;;;7.18;2.85;;;4.90;99.90;;;;;;7392679;19;20301;-79
2022/01/28 09:37:41;;;;;;;5.50;2.95;;;4.90;99.90;;;;;;7392165;19;20872;-79
2022/01/28 09:40:08;;;;;;;7.43;2.47;;;4.90;99.90;;;;;;7391592;19;20320;-80
2022/01/28 09:42:37;;;;;;;3.92;2.30;;;5.00;99.90;;;;;;7387381;19;20312;-79
2022/01/28 09:45:07;;;;;;;7.03;3.05;;;5.00;99.90;;;;;;7392950;19;20374;-79
2022/01/28 09:47:33;;;;;;;3.72;2.42;;;5.00;99.90;;;;;;7395348;19;20843;-81
2022/01/28 09:49:59;;;;;;;5.35;2.58;;;4.90;99.90;;;;;;7393907;19;20323;-78
2022/01/28 09:52:25;;;;;;;3.90;2.50;;;4.80;99.90;;;;;;7392111;19;20328;-78
2022/01/28 09:54:51;;;;;;;6.22;2.63;;;4.90;99.90;;;;;;7391833;19;20383;-81
2022/01/28 09:57:20;;;;;;;6.47;2.43;;;5.00;99.90;;;;;;7387621;19;20285;-78
2022/01/28 09:59:47;;;;;;;7.53;2.83;;;4.80;99.90;;;;;;7392597;19;20332;-79
2022/01/28 10:02:12;;;;;;;6.80;2.80;;;4.80;99.90;;;;;;7395915;19;20308;-80
2022/01/28 10:04:39;;;;;;;7.32;2.83;;;4.80;99.90;;;;;;7401874;19;20332;-83
2022/01/28 10:07:15;;;;;;;6.90;2.80;;;4.90;99.90;;;;;;7402291;19;20315;-80
2022/01/28 10:09:56;;;;;;;3.55;2.45;;;5.00;99.90;;;;;;7296121;19;2004383;-79
2022/01/28 10:12:41;;;;;;;4.20;2.38;;;5.10;99.90;;;;;;7289255;19;2007189;-79
2022/01/28 10:15:17;;;;;;;7.20;3.03;;;5.00;99.90;;;;;;7273417;19;2004585;-79
2022/01/28 10:17:53;;;;;;;3.88;2.70;;;5.10;99.90;;;;;;7394877;19;20317;-79
2022/01/28 10:20:23;;;;;;;5.80;2.93;;;5.00;99.90;;;;;;7391227;19;20687;-81
2022/01/28 10:22:53;;;;;;;7.63;3.05;;;4.90;99.90;;;;;;7390020;19;20884;-79
2022/01/28 10:25:26;;;;;;;6.25;2.50;;;5.00;99.90;;;;;;7391498;19;20324;-79
2022/01/28 10:28:11;;;;;;;4.15;2.35;;;5.00;99.90;;;;;;7390543;19;20308;-80
2022/01/28 10:30:58;;;;;;;6.18;2.67;;;5.00;99.90;;;;;;7390565;19;20312;-79
2022/01/28 10:33:34;;;;;;;6.28;2.47;;;5.10;99.90;;;;;;7260895;19;2004444;-79
2022/01/28 10:36:04;;;;;;;5.88;2.80;;;5.20;99.90;;;;;;7389294;19;20305;-79
2022/01/28 10:38:37;;;;;;;7.65;2.50;;;5.30;99.90;;;;;;7389840;19;20316;-79
2022/01/28 10:41:13;;;;;;;2.83;2.20;;;5.30;99.90;;;;;;7368594;19;20643;-80
2022/01/28 10:43:49;;;;;;;4.07;2.42;;;5.30;99.90;;;;;;7361281;19;20313;-79
2022/01/28 10:46:26;;;;;;;5.25;2.70;;;5.30;99.90;;;;;;7386772;19;20300;-79
2022/01/28 10:48:53;;;;;;;5.05;2.50;;;5.20;99.90;;;;;;7387644;19;20392;-78
2022/01/28 10:51:36;;;;;;;9.25;3.20;;;5.20;99.90;;;;;;7389251;19;20831;-79
2022/01/28 10:54:07;;;;;;;6.43;2.80;;;5.20;99.90;;;;;;7384952;19;20321;-82
2022/01/28 10:56:48;;;;;;;5.47;2.40;;;5.40;99.90;;;;;;7385326;19;20375;-78
2022/01/28 10:59:17;;;;;;;5.53;2.55;;;5.40;99.90;;;;;;7384996;19;20332;-79
2022/01/28 11:01:43;;;;;;;8.85;2.92;;;5.40;99.90;;;;;;7390268;19;20309;-79
2022/01/28 11:04:11;;;;;;;5.15;2.60;;;5.40;99.90;;;;;;7390039;19;20737;-80
2022/01/28 11:06:38;;;;;;;6.88;3.00;;;5.40;99.90;;;;;;7387335;19;20316;-79
2022/01/28 11:09:08;;;;;;;4.25;2.70;;;5.40;99.90;;;;;;7409725;19;20400;-81
2022/01/28 11:11:34;;;;;;;6.22;2.90;;;5.50;99.90;;;;;;7394883;19;20375;-80
2022/01/28 11:14:00;;;;;;;8.03;2.80;;;5.40;99.90;;;;;;7395735;19;20328;-80
2022/01/28 11:16:27;;;;;;;5.20;2.50;;;5.50;99.90;;;;;;7392750;19;20387;-80
2022/01/28 11:18:55;;;;;;;6.15;2.85;;;5.50;99.90;;;;;;7372052;19;20628;-80
2022/01/28 11:21:30;;;;;;;5.60;2.40;;;5.50;99.90;;;;;;7380816;19;20324;-82
2022/01/28 11:24:21;;;;;;;4.55;2.55;;;5.50;99.90;;;;;;7392203;19;20312;-80
2022/01/28 11:26:54;;;;;;;4.90;2.90;;;5.50;99.90;;;;;;7372916;19;20378;-79
2022/01/28 11:29:27;;;;;;;7.40;2.65;;;5.50;99.90;;;;;;7390676;19;20894;-79
2022/01/28 11:31:55;;;;;;;4.25;2.45;;;5.50;99.90;;;;;;7372868;19;20312;-79
2022/01/28 11:34:26;;;;;;;4.70;2.65;;;5.30;99.90;;;;;;7391084;19;20321;-80
2022/01/28 11:37:18;;;;;;;3.13;2.25;;;5.40;99.90;;;;;;7353414;19;20648;-79
2022/01/28 11:39:50;;;;;;;6.60;2.95;;;5.40;99.90;;;;;;7277183;19;2004330;-80
2022/01/28 11:42:37;;;;;;;11.18;2.97;;;5.50;99.90;;;;;;7400998;19;20353;-81
2022/01/28 11:45:07;;;;;;;6.38;2.60;;;5.50;99.90;;;;;;7392607;19;20388;-80
2022/01/28 11:47:38;;;;;;;6.55;2.95;;;5.60;99.90;;;;;;7384530;19;20296;-82
2022/01/28 11:50:10;;;;;;;4.68;2.47;;;5.60;99.90;;;;;;7390559;19;20323;-80
2022/01/28 11:52:44;;;;;;;4.55;2.65;;;5.30;99.90;;;;;;7397676;19;20296;-80
2022/01/28 11:55:25;;;;;;;5.00;2.42;;;5.40;99.90;;;;;;7394857;19;20317;-80
2022/01/28 11:58:01;;;;;;;4.80;2.70;;;5.40;99.90;;;;;;7292548;19;2004492;-80
2022/01/28 12:00:28;;;;;;;4.85;2.58;;;5.60;99.90;;;;;;7292837;19;2004357;-81
2022/01/28 12:02:54;;;;;;;3.90;2.40;;;5.80;99.90;;;;;;7392794;19;20316;-79
2022/01/28 12:05:29;;;;;;;4.55;2.53;;;5.90;99.90;;;;;;7391010;19;20406;-80
2022/01/28 12:08:02;;;;;;;4.70;2.50;;;6.00;99.90;;;;;;7395063;19;20304;-84
2022/01/28 12:10:30;;;;;;;3.53;2.07;;;5.90;99.90;;;;;;7390201;19;20344;-81
2022/01/28 12:13:06;;;;;;;5.07;2.37;;;6.00;99.90;;;;;;7390899;19;20846;-82
2022/01/28 12:18:44;;;;;;;5.97;2.40;;;5.80;99.90;;;;;;7284535;19;2004456;-80
2022/01/28 12:21:19;;;;;;;4.75;2.53;;;5.70;99.90;;;;;;7389699;19;20384;-79
2022/01/28 12:23:46;;;;;;;3.85;2.25;;;5.80;99.90;;;;;;7388793;19;20380;-80
2022/01/28 12:26:16;;;;;;;4.95;2.25;;;5.70;99.90;;;;;;7392372;19;20340;-80
2022/01/28 12:28:44;;;;;;;4.10;2.47;;;5.70;99.90;;;;;;7389342;19;20345;-80
2022/01/28 12:31:16;;;;;;;4.17;2.20;;;5.70;99.90;;;;;;7388820;19;20324;-80
2022/01/28 12:33:44;;;;;;;3.60;2.10;;;5.80;99.90;;;;;;7386890;19;20366;-79
2022/01/28 12:36:14;;;;;;;4.90;2.40;;;5.60;99.90;;;;;;7391008;19;20304;-79
2022/01/28 12:38:57;;;;;;;4.28;2.50;;;5.60;99.90;;;;;;7392028;19;20348;-80
2022/01/28 12:41:24;;;;;;;4.73;2.17;;;5.70;99.90;;;;;;7392631;19;20305;-79
2022/01/28 12:43:50;;;;;;;3.57;2.30;;;5.60;99.90;;;;;;7385905;19;20348;-79
2022/01/28 12:46:16;;;;;;;4.47;2.33;;;5.60;99.90;;;;;;7389764;19;20312;-80
2022/01/28 12:48:49;;;;;;;4.37;2.53;;;5.50;99.90;;;;;;7389159;19;20967;-79
2022/01/28 12:51:15;;;;;;;5.88;2.58;;;5.60;99.90;;;;;;7390637;19;21178;-78
2022/01/28 12:53:45;;;;;;;3.03;2.33;;;5.50;99.90;;;;;;7389276;19;20351;-82
2022/01/28 12:56:11;;;;;;;4.72;2.53;;;5.50;99.90;;;;;;7390961;19;20327;-80
2022/01/28 12:58:47;;;;;;;4.85;2.60;;;5.60;99.90;;;;;;7392383;19;20344;-82
2022/01/28 13:01:15;;;;;;;6.20;2.40;;;5.60;99.90;;;;;;7388789;19;20317;-80
2022/01/28 13:04:17;;;;;;;4.20;2.83;;;5.70;99.90;;;;;;7385818;19;20311;-80
2022/01/28 13:09:00;;;;;;;3.30;2.20;;;5.70;99.90;;;;;;7386175;19;20392;-80
2022/01/28 13:11:27;;;;;;;7.93;2.72;;;5.90;99.90;;;;;;7390446;19;20327;-80
2022/01/28 13:13:54;;;;;;;6.13;2.65;;;5.80;99.90;;;;;;7387797;19;20375;-80
2022/01/28 13:16:36;;;;;;;6.30;2.60;;;5.70;99.90;;;;;;7388756;19;20344;-80
2022/01/28 13:19:04;;;;;;;5.90;2.00;;;5.70;99.90;;;;;;7389941;19;20315;-82
2022/01/28 13:21:30;;;;;;;3.05;1.95;;;5.70;99.90;;;;;;7393751;19;20341;-79
2022/01/28 13:24:26;;;;;;;3.80;1.75;;;5.70;99.90;;;;;;7389165;19;20697;-80
2022/01/28 13:26:59;;;;;;;5.00;2.45;;;5.70;99.90;;;;;;7287050;19;2004543;-80
2022/01/28 13:29:29;;;;;;;7.05;2.47;;;5.70;99.90;;;;;;7389856;19;20357;-80
2022/01/28 13:31:58;;;;;;;3.95;1.80;;;5.60;99.90;;;;;;7386681;19;20336;-81
2022/01/28 13:34:24;;;;;;;2.05;1.80;;;5.60;99.90;;;;;;7388792;19;20355;-81
2022/01/28 13:36:52;;;;;;;4.18;1.80;;;5.70;99.90;;;;;;7388336;19;20327;-80
2022/01/28 13:39:19;;;;;;;3.95;2.00;;;5.70;99.90;;;;;;7387234;19;20387;-81
2022/01/28 13:41:47;;;;;;;4.65;2.05;;;5.70;99.90;;;;;;7387147;19;20324;-80
2022/01/28 13:44:23;;;;;;;5.40;2.20;;;5.60;99.90;;;;;;7385370;19;20400;-80
2022/01/28 13:46:59;;;;;;;4.20;2.20;;;5.60;99.90;;;;;;7388119;19;20328;-80
2022/01/28 13:49:33;;;;;;;4.60;2.25;;;5.60;99.90;;;;;;7385421;19;20339;-80
2022/01/28 13:52:42;;;;;;;3.30;2.00;;;5.50;99.90;;;;;;7386011;19;21183;-80
2022/01/28 13:55:30;;;;;;;3.35;2.47;;;5.60;99.90;;;;;;7283210;19;2004473;-80
2022/01/28 13:58:04;;;;;;;4.35;2.40;;;5.60;99.90;;;;;;7385811;19;27416;-83
2022/01/28 14:00:43;;;;;;;5.97;2.10;;;5.70;99.90;;;;;;7386722;19;20424;-80
2022/01/28 14:03:18;;;;;;;3.67;2.40;;;5.80;99.90;;;;;;7386858;19;20329;-89
2022/01/28 14:05:54;;;;;;;5.72;2.22;;;5.80;99.90;;;;;;7388195;19;20396;-81
2022/01/28 14:08:41;;;;;;;3.55;1.98;;;5.70;99.90;;;;;;7385440;19;20334;-80
2022/01/28 14:11:32;;;;;;;4.43;2.33;;;5.80;99.90;;;;;;7387830;19;20324;-84
2022/01/28 14:14:16;;;;;;;4.60;2.30;;;5.80;99.90;;;;;;7285990;19;2005637;-81
2022/01/28 14:17:03;;;;;;;3.38;2.00;;;5.70;99.90;;;;;;7386652;19;20365;-84
2022/01/28 14:19:31;;;;;;;4.00;2.80;;;5.70;99.90;;;;;;7385543;19;20312;-81
2022/01/28 14:21:57;;;;;;;4.63;2.13;;;5.80;99.90;;;;;;7385285;19;20342;-80
2022/01/28 14:24:36;;;;;;;5.03;2.30;;;5.80;99.90;;;;;;7386879;19;20329;-81
2022/01/28 14:32:15;;;;;;;6.50;2.95;;;5.70;99.90;;;;;;7283097;19;2004426;-82
2022/01/28 14:34:41;;;;;;;4.63;1.88;;;5.70;99.90;;;;;;7382691;19;20359;-81
2022/01/28 14:37:07;;;;;;;5.57;2.53;;;5.70;99.90;;;;;;7385732;19;21163;-80